Clio, Iowa
Current Conditions -  °F | °C
As of 5:53 AM on Friday 19 Dec 2014 (Local Time) from KLWD Reporting Station
Light Snow Light Snow  
Wind Chill: 28°   Ceiling: 2000
Heat Index: 28°   Visibility: 3mi
Dew Point: 26°   Wind: 0mph
Humidity: 92%   Direction: NA
Pressure: 30.24"   Gusts: NA
Location:  40.64°N, 93.45°W
Report Text: KLWD 191153Z AUTO 00000KT 3SM -SN BR SCT009 BKN020 OVC043 M02/M03 A3024 RMK AO2 SNB12 SLP255 P0000 60000 70009 T10221033 11022 21022 55003
Loading
Personal Weather Stations






























Interactive Weather Map New forecast layout! Learn more

10-Day Weather Forecast

Advertisements
Track Severe Weather on mobile